createdAt,value
2019-01-11T00:01:59.147Z,5.80
2019-01-11T00:04:25.902Z,6.70
2019-01-11T00:06:52.691Z,5.72
2019-01-11T00:09:18.714Z,6.60
2019-01-11T00:11:44.744Z,6.35
2019-01-11T00:14:10.692Z,6.35
2019-01-11T00:16:36.648Z,5.93
2019-01-11T00:19:07.080Z,5.90
2019-01-11T00:21:28.671Z,4.82
2019-01-11T00:23:54.637Z,5.97
2019-01-11T00:26:20.620Z,4.47
2019-01-11T00:28:46.590Z,5.00
2019-01-11T00:31:12.550Z,8.17
2019-01-11T00:33:38.514Z,5.47
2019-01-11T00:36:04.485Z,4.57
2019-01-11T00:38:30.541Z,4.97
2019-01-11T00:40:56.517Z,5.53
2019-01-11T00:43:22.466Z,5.87
2019-01-11T00:45:48.441Z,4.80
2019-01-11T00:48:14.425Z,5.27
2019-01-11T00:50:40.390Z,5.67
2019-01-11T00:53:06.360Z,7.33
2019-01-11T00:55:33.096Z,5.20
2019-01-11T00:57:59.837Z,6.60
2019-01-11T01:00:25.814Z,6.40
2019-01-11T01:02:51.791Z,5.03
2019-01-11T01:05:17.767Z,5.20
2019-01-11T01:07:43.777Z,4.47
2019-01-11T01:10:09.746Z,4.25
2019-01-11T01:12:35.748Z,5.90
2019-01-11T01:15:01.812Z,5.82
2019-01-11T01:17:27.808Z,5.87
2019-01-11T01:19:53.878Z,5.50
2019-01-11T01:22:19.857Z,6.05
2019-01-11T01:24:45.928Z,6.63
2019-01-11T01:27:11.900Z,6.20
2019-01-11T01:29:38.682Z,6.63
2019-01-11T01:32:04.649Z,5.87
2019-01-11T01:34:31.362Z,6.47
2019-01-11T01:36:57.308Z,6.87
2019-01-11T01:39:23.265Z,6.13
2019-01-11T01:41:49.223Z,6.57
2019-01-11T01:44:15.186Z,6.07
2019-01-11T01:46:41.129Z,5.50
2019-01-11T01:49:07.153Z,6.10
2019-01-11T01:51:33.145Z,5.07
2019-01-11T01:53:59.093Z,6.20
2019-01-11T01:56:25.049Z,6.60
2019-01-11T01:58:51.012Z,7.40
2019-01-11T02:01:16.944Z,9.50
2019-01-11T02:03:42.889Z,7.10
2019-01-11T02:06:08.868Z,9.97
2019-01-11T02:08:34.834Z,8.80
2019-01-11T02:11:00.765Z,8.17
2019-01-11T02:13:26.738Z,9.30
2019-01-11T02:15:53.431Z,8.70
2019-01-11T02:18:19.388Z,9.40
2019-01-11T02:20:45.356Z,8.77
2019-01-11T02:23:11.308Z,10.10
2019-01-11T02:25:37.272Z,8.33
2019-01-11T02:28:03.232Z,9.60
2019-01-11T02:30:29.204Z,8.73
2019-01-11T02:32:55.916Z,8.60
2019-01-11T02:35:21.885Z,10.57
2019-01-11T02:37:47.856Z,10.03
2019-01-11T02:40:13.815Z,10.00
2019-01-11T02:42:40.551Z,10.83
2019-01-11T02:45:08.375Z,9.90
2019-01-11T02:47:34.356Z,9.65
2019-01-11T02:50:00.323Z,11.23
2019-01-11T02:52:26.292Z,10.63
2019-01-11T02:54:52.260Z,11.67
2019-01-11T02:57:18.289Z,11.50
2019-01-11T02:59:44.241Z,10.95
2019-01-11T03:02:10.220Z,12.50
2019-01-11T03:04:36.169Z,9.83
2019-01-11T03:07:02.108Z,9.83
2019-01-11T03:09:28.065Z,10.40
2019-01-11T03:11:54.049Z,10.60
2019-01-11T03:14:20.040Z,10.60
2019-01-11T03:16:45.971Z,12.83
2019-01-11T03:19:11.977Z,17.80
2019-01-11T03:21:37.935Z,10.13
2019-01-11T03:24:03.900Z,13.10
2019-01-11T03:26:29.883Z,13.07
2019-01-11T03:28:55.886Z,10.60
2019-01-11T03:31:21.865Z,12.37
2019-01-11T03:33:47.856Z,14.90
2019-01-11T03:36:13.826Z,13.90
2019-01-11T03:38:39.787Z,12.00
2019-01-11T03:41:05.746Z,12.50
2019-01-11T03:43:32.701Z,13.50
2019-01-11T03:45:58.669Z,13.50
2019-01-11T03:48:24.641Z,14.23
2019-01-11T03:50:50.642Z,13.70
2019-01-11T03:53:16.610Z,13.13
2019-01-11T03:55:42.565Z,11.07
2019-01-11T03:58:08.525Z,14.43
2019-01-11T04:00:34.502Z,13.17
2019-01-11T04:03:00.466Z,15.57
2019-01-11T04:05:26.461Z,13.40
2019-01-11T04:07:52.422Z,13.15
2019-01-11T04:10:18.438Z,14.60
2019-01-11T04:12:44.398Z,15.60
2019-01-11T04:15:10.362Z,13.70
2019-01-11T04:17:36.364Z,14.77
2019-01-11T04:20:02.599Z,14.80
2019-01-11T04:22:29.681Z,14.53
2019-01-11T04:24:57.262Z,17.17
2019-01-11T04:27:23.222Z,14.82
2019-01-11T04:29:49.192Z,17.50
2019-01-11T04:32:15.155Z,18.70
2019-01-11T04:34:41.849Z,21.30
2019-01-11T04:37:07.802Z,14.02
2019-01-11T04:39:33.752Z,16.33
2019-01-11T04:41:59.727Z,19.63
2019-01-11T04:44:25.685Z,21.57
2019-01-11T04:46:52.423Z,19.23
2019-01-11T04:49:19.127Z,16.55
2019-01-11T04:51:45.099Z,18.00
2019-01-11T04:54:11.079Z,17.00
2019-01-11T04:56:37.030Z,19.70
2019-01-11T04:59:03.011Z,20.23
2019-01-11T05:01:28.998Z,16.17
2019-01-11T05:03:55.006Z,22.30
2019-01-11T05:06:20.972Z,19.20
2019-01-11T05:08:46.970Z,18.50
2019-01-11T05:11:12.976Z,22.95
2019-01-11T05:13:38.974Z,18.35
2019-01-11T05:16:04.941Z,18.27
2019-01-11T05:18:30.920Z,18.03
2019-01-11T05:20:56.856Z,20.43
2019-01-11T05:23:22.871Z,18.00
2019-01-11T05:25:48.816Z,19.07
2019-01-11T05:28:14.797Z,18.90
2019-01-11T05:30:40.793Z,19.83
2019-01-11T05:33:06.749Z,19.57
2019-01-11T05:35:32.734Z,18.90
2019-01-11T05:37:58.705Z,21.17
2019-01-11T05:40:24.664Z,23.53
2019-01-11T05:42:50.638Z,21.50
2019-01-11T05:45:16.604Z,21.27
2019-01-11T05:47:42.603Z,27.37
2019-01-11T05:50:09.757Z,20.47
2019-01-11T05:52:36.084Z,26.55
2019-01-11T05:55:02.054Z,21.10
2019-01-11T05:57:28.031Z,21.17
2019-01-11T05:59:54.027Z,23.27
2019-01-11T06:02:20.005Z,25.35
2019-01-11T06:04:45.978Z,19.97
2019-01-11T06:07:14.817Z,24.17
2019-01-11T06:09:40.777Z,26.40
2019-01-11T06:12:06.740Z,24.13
2019-01-11T06:14:32.712Z,24.33
2019-01-11T06:16:59.389Z,21.17
2019-01-11T06:19:25.349Z,23.33
2019-01-11T06:21:51.301Z,22.03
2019-01-11T06:24:17.284Z,27.70
2019-01-11T06:26:43.230Z,25.00
2019-01-11T06:29:09.205Z,24.47
2019-01-11T06:31:36.004Z,24.60
2019-01-11T06:34:01.988Z,29.95
2019-01-11T06:36:27.963Z,26.90
2019-01-11T06:38:53.956Z,27.00
2019-01-11T06:41:19.927Z,30.17
2019-01-11T06:43:45.928Z,28.23
2019-01-11T06:46:11.884Z,32.90
2019-01-11T06:48:37.882Z,27.33
2019-01-11T06:51:03.859Z,28.80
2019-01-11T06:53:29.804Z,31.37
2019-01-11T06:55:55.796Z,34.17
2019-01-11T06:58:22.533Z,27.40
2019-01-11T07:00:48.523Z,32.72
2019-01-11T07:03:14.497Z,29.73
2019-01-11T07:05:40.498Z,29.47
2019-01-11T07:08:06.490Z,33.47
2019-01-11T07:10:32.490Z,34.57
2019-01-11T07:12:58.470Z,32.75
2019-01-11T07:15:24.452Z,33.40
2019-01-11T07:17:50.429Z,30.73
2019-01-11T07:20:16.393Z,29.07
2019-01-11T07:22:44.208Z,27.20
2019-01-11T07:25:11.906Z,30.67
2019-01-11T07:27:38.613Z,31.92
2019-01-11T07:30:04.572Z,35.30
2019-01-11T07:32:30.597Z,29.80
2019-01-11T07:34:56.582Z,30.48
2019-01-11T07:37:22.556Z,30.10
2019-01-11T07:39:48.548Z,38.93
2019-01-11T07:42:14.520Z,32.90
2019-01-11T07:44:40.489Z,36.73
2019-01-11T07:47:06.569Z,30.80
2019-01-11T07:49:32.540Z,34.22
2019-01-11T07:51:58.523Z,31.40
2019-01-11T07:54:25.260Z,37.83
2019-01-11T07:56:51.243Z,33.72
2019-01-11T07:59:17.231Z,33.03
2019-01-11T08:01:43.211Z,30.70
2019-01-11T08:04:09.294Z,36.80
2019-01-11T08:06:35.289Z,28.12
2019-01-11T08:09:01.286Z,31.17
2019-01-11T08:11:27.278Z,39.28
2019-01-11T08:13:53.263Z,32.33
2019-01-11T08:16:19.257Z,35.13
2019-01-11T08:18:45.206Z,36.10
2019-01-11T08:21:11.216Z,32.47
2019-01-11T08:23:37.196Z,31.62
2019-01-11T08:26:03.166Z,38.13
2019-01-11T08:28:29.887Z,31.30
2019-01-11T08:30:56.625Z,30.27
2019-01-11T08:33:23.336Z,32.97
2019-01-11T08:35:49.354Z,29.77
2019-01-11T08:38:15.314Z,33.03
2019-01-11T08:40:42.005Z,30.73
2019-01-11T08:43:07.978Z,35.38
2019-01-11T08:45:33.973Z,33.43
2019-01-11T08:47:59.920Z,29.43
2019-01-11T08:50:25.930Z,29.37
2019-01-11T08:52:51.887Z,29.90
2019-01-11T08:55:17.829Z,28.97
2019-01-11T08:57:43.801Z,32.47
2019-01-11T09:00:10.748Z,33.27
2019-01-11T09:02:36.729Z,38.05
2019-01-11T09:05:02.713Z,33.00
2019-01-11T09:07:28.669Z,30.20
2019-01-11T09:09:54.631Z,34.03
2019-01-11T09:12:21.376Z,32.77
2019-01-11T09:14:47.363Z,33.08
2019-01-11T09:17:13.413Z,33.40
2019-01-11T09:19:40.121Z,29.15
2019-01-11T09:22:06.089Z,28.12
2019-01-11T09:24:32.084Z,31.37
2019-01-11T09:26:58.814Z,30.80
2019-01-11T09:29:24.805Z,27.48
2019-01-11T09:31:50.762Z,31.60
2019-01-11T09:34:16.758Z,31.73
2019-01-11T09:36:42.728Z,28.98
2019-01-11T09:39:08.649Z,25.43
2019-01-11T09:41:34.606Z,27.00
2019-01-11T09:44:01.086Z,27.17
2019-01-11T09:46:27.052Z,27.92
2019-01-11T09:48:53.008Z,24.17
2019-01-11T09:51:18.985Z,26.07
2019-01-11T09:53:44.935Z,28.20
2019-01-11T09:56:10.901Z,25.67
2019-01-11T09:58:36.883Z,23.83
2019-01-11T10:01:02.880Z,24.90
2019-01-11T10:03:28.862Z,22.13
2019-01-11T10:05:55.637Z,25.20
2019-01-11T10:08:21.621Z,28.17
2019-01-11T10:10:47.611Z,29.77
2019-01-11T10:13:13.617Z,22.33
2019-01-11T10:15:39.600Z,25.25
2019-01-11T10:18:05.548Z,24.53
2019-01-11T10:20:31.500Z,25.83
2019-01-11T10:22:57.480Z,27.60
2019-01-11T10:25:23.444Z,26.73
2019-01-11T10:27:49.406Z,23.43
2019-01-11T10:30:16.117Z,23.03
2019-01-11T10:32:43.130Z,26.08
2019-01-11T10:35:09.138Z,23.17
2019-01-11T10:37:35.175Z,33.95
2019-01-11T10:40:01.176Z,26.87
2019-01-11T10:42:27.133Z,25.33
2019-01-11T10:44:53.104Z,25.50
2019-01-11T10:47:19.066Z,22.63
2019-01-11T10:49:45.012Z,25.13
2019-01-11T10:52:11.042Z,24.50
2019-01-11T10:54:37.038Z,23.15
2019-01-11T10:57:03.019Z,23.13
2019-01-11T10:59:29.751Z,25.80
2019-01-11T11:01:56.495Z,23.17
2019-01-11T11:04:23.832Z,22.00
2019-01-11T11:06:49.922Z,22.50
2019-01-11T11:09:15.895Z,27.70
2019-01-11T11:11:41.864Z,26.90
2019-01-11T11:14:07.841Z,25.70
2019-01-11T11:16:33.804Z,28.27
2019-01-11T11:18:59.804Z,20.80
2019-01-11T11:21:25.869Z,25.87
2019-01-11T11:23:54.041Z,20.70
2019-01-11T11:26:17.846Z,24.60
2019-01-11T11:28:43.848Z,26.40
2019-01-11T11:31:09.808Z,26.75
2019-01-11T11:33:35.776Z,23.80
2019-01-11T11:36:01.750Z,22.60
2019-01-11T11:38:27.730Z,22.83
2019-01-11T11:40:53.708Z,22.83
2019-01-11T11:43:19.682Z,30.10
2019-01-11T11:45:46.392Z,23.70
2019-01-11T11:48:12.486Z,26.10
2019-01-11T11:50:38.482Z,23.80
2019-01-11T11:53:05.216Z,26.30
2019-01-11T11:55:31.896Z,24.55
2019-01-11T11:57:57.876Z,27.50
2019-01-11T12:00:23.920Z,30.90
2019-01-11T12:02:49.903Z,27.45
2019-01-11T12:05:15.877Z,30.27
2019-01-11T12:07:41.853Z,32.43
2019-01-11T12:10:08.554Z,25.40
2019-01-11T12:12:34.528Z,32.03
2019-01-11T12:15:00.523Z,30.27
2019-01-11T12:17:26.498Z,32.15
2019-01-11T12:19:52.587Z,29.30
2019-01-11T12:22:18.573Z,30.65
2019-01-11T12:24:44.530Z,30.07
2019-01-11T12:27:10.553Z,33.40
2019-01-11T12:29:36.520Z,34.47
2019-01-11T12:32:02.500Z,36.07
2019-01-11T12:34:28.537Z,33.37
2019-01-11T12:36:54.488Z,32.30
2019-01-11T12:39:20.459Z,31.53
2019-01-11T12:41:46.457Z,26.33
2019-01-11T12:44:12.474Z,30.40
2019-01-11T12:46:38.490Z,29.27
2019-01-11T12:49:04.495Z,26.62
2019-01-11T12:51:30.491Z,33.70
2019-01-11T12:53:56.445Z,29.10
2019-01-11T12:56:22.421Z,31.30
2019-01-11T12:58:49.208Z,38.90
2019-01-11T13:01:15.182Z,32.85
2019-01-11T13:03:41.921Z,28.10
2019-01-11T13:06:08.700Z,28.70
2019-01-11T13:08:34.648Z,30.73
2019-01-11T13:11:00.618Z,35.70
2019-01-11T13:13:26.595Z,32.27
2019-01-11T13:15:52.552Z,32.50
2019-01-11T13:18:19.243Z,30.67
2019-01-11T13:20:45.221Z,32.55
2019-01-11T13:23:11.190Z,33.50
2019-01-11T13:25:37.190Z,29.57
2019-01-11T13:28:03.238Z,31.95
2019-01-11T13:30:29.249Z,32.60
2019-01-11T13:32:55.249Z,30.37
2019-01-11T13:35:21.293Z,36.78
2019-01-11T13:37:47.545Z,34.28
2019-01-11T13:40:21.140Z,30.55
2019-01-11T13:42:47.121Z,34.92
2019-01-11T13:45:13.130Z,35.57
2019-01-11T13:47:39.364Z,30.17
2019-01-11T13:50:06.316Z,39.70
2019-01-11T13:52:32.365Z,34.03
2019-01-11T13:54:58.377Z,34.55
2019-01-11T13:57:24.357Z,36.13
2019-01-11T13:59:51.224Z,29.33
2019-01-11T14:02:17.259Z,35.95
2019-01-11T14:04:43.291Z,33.63
2019-01-11T14:07:11.416Z,32.15
2019-01-11T14:09:37.457Z,27.77
2019-01-11T14:12:03.461Z,28.25
2019-01-11T14:14:29.558Z,29.15
2019-01-11T14:16:55.711Z,30.05
2019-01-11T14:19:21.830Z,29.33
2019-01-11T14:21:48.549Z,31.33
2019-01-11T14:24:14.531Z,29.33
2019-01-11T14:26:40.488Z,30.03
2019-01-11T14:29:06.458Z,30.87
2019-01-11T14:31:32.547Z,27.30
2019-01-11T14:33:58.537Z,29.95
2019-01-11T14:36:24.497Z,28.17
2019-01-11T14:38:51.221Z,31.13
2019-01-11T14:41:17.228Z,34.22
2019-01-11T14:43:43.226Z,34.47
2019-01-11T14:46:09.174Z,35.13
2019-01-11T14:48:35.156Z,33.00
2019-01-11T14:51:01.120Z,31.60
2019-01-11T14:53:27.270Z,31.13
2019-01-11T14:55:56.258Z,34.53
2019-01-11T14:58:21.380Z,37.28
2019-01-11T15:00:47.468Z,33.10
2019-01-11T15:03:13.446Z,30.15
2019-01-11T15:05:39.425Z,36.77
2019-01-11T15:08:06.205Z,29.00
2019-01-11T15:10:33.240Z,33.67
2019-01-11T15:12:59.277Z,28.83
2019-01-11T15:15:25.264Z,32.65
2019-01-11T15:17:51.312Z,32.58
2019-01-11T15:20:17.313Z,33.78
2019-01-11T15:22:43.500Z,30.45
2019-01-11T15:25:09.568Z,31.10
2019-01-11T15:27:35.550Z,31.12
2019-01-11T15:30:01.544Z,31.60
2019-01-11T15:32:27.568Z,31.52
2019-01-11T15:34:53.558Z,35.20
2019-01-11T15:37:20.252Z,40.37
2019-01-11T15:39:46.232Z,34.83
2019-01-11T15:42:12.200Z,30.40
2019-01-11T15:44:38.209Z,36.90
2019-01-11T15:47:04.613Z,33.85
2019-01-11T15:49:30.707Z,38.20
2019-01-11T15:51:57.400Z,33.30
2019-01-11T15:54:23.397Z,35.95
2019-01-11T15:56:49.445Z,42.67
2019-01-11T15:59:15.485Z,43.87
2019-01-11T16:01:43.539Z,33.70
2019-01-11T16:04:09.546Z,32.20
2019-01-11T16:06:36.620Z,33.88
2019-01-11T16:09:15.633Z,35.70
2019-01-11T16:11:55.578Z,31.60
2019-01-11T16:14:30.492Z,33.50
2019-01-11T16:16:56.458Z,36.42
2019-01-11T16:19:22.451Z,31.90
2019-01-11T16:21:48.473Z,32.63
2019-01-11T16:24:14.455Z,34.17
2019-01-11T16:26:40.446Z,35.00
2019-01-11T16:29:06.457Z,30.97
2019-01-11T16:31:32.452Z,31.27
2019-01-11T16:33:58.476Z,31.10
2019-01-11T16:36:24.517Z,30.65
2019-01-11T16:38:50.532Z,34.47
2019-01-11T16:41:16.526Z,31.73
2019-01-11T16:43:42.507Z,31.83
2019-01-11T16:46:08.616Z,30.67
2019-01-11T16:48:34.611Z,32.83
2019-01-11T16:51:00.604Z,36.22
2019-01-11T16:53:26.660Z,32.07
2019-01-11T16:55:52.694Z,34.65
2019-01-11T16:58:18.708Z,32.67
2019-01-11T17:00:44.720Z,34.42
2019-01-11T17:03:10.884Z,34.20
2019-01-11T17:05:36.972Z,30.85
2019-01-11T17:08:05.149Z,33.65
2019-01-11T17:10:31.474Z,37.05
2019-01-11T17:12:57.561Z,33.95
2019-01-11T17:15:25.521Z,35.08
2019-01-11T17:17:51.990Z,30.02
2019-01-11T17:20:18.067Z,30.52
2019-01-11T17:22:44.139Z,32.65
2019-01-11T17:25:10.156Z,31.60
2019-01-11T17:27:37.289Z,33.72
2019-01-11T17:30:03.978Z,33.00
2019-01-11T17:32:29.990Z,32.85
2019-01-11T17:34:55.996Z,30.65
2019-01-11T17:37:21.998Z,34.35
2019-01-11T17:39:47.967Z,28.45
2019-01-11T17:42:14.574Z,29.90
2019-01-11T17:44:41.474Z,31.60
2019-01-11T17:47:14.384Z,39.00
2019-01-11T17:49:40.369Z,33.90
2019-01-11T17:52:06.336Z,36.70
2019-01-11T17:54:32.323Z,33.00
2019-01-11T17:56:58.341Z,34.43
2019-01-11T17:59:25.076Z,34.90
2019-01-11T18:01:51.100Z,34.58
2019-01-11T18:04:17.127Z,31.62
2019-01-11T18:06:43.154Z,29.27
2019-01-11T18:09:09.182Z,30.62
2019-01-11T18:11:35.265Z,30.27
2019-01-11T18:14:01.241Z,34.17
2019-01-11T18:16:28.021Z,37.20
2019-01-11T18:18:54.371Z,43.92
2019-01-11T18:21:20.346Z,38.10
2019-01-11T18:23:46.345Z,30.40
2019-01-11T18:26:12.769Z,37.27
2019-01-11T18:28:38.726Z,31.85
2019-01-11T18:31:04.797Z,31.97
2019-01-11T18:33:30.821Z,31.20
2019-01-11T18:35:56.784Z,34.80
2019-01-11T18:38:22.738Z,29.33
2019-01-11T18:40:48.734Z,31.50
2019-01-11T18:43:14.692Z,31.20
2019-01-11T18:45:40.689Z,29.90
2019-01-11T18:48:06.725Z,33.25
2019-01-11T18:50:32.816Z,29.30
2019-01-11T18:52:58.844Z,30.10
2019-01-11T18:55:24.864Z,30.58
2019-01-11T18:57:50.877Z,30.83
2019-01-11T19:00:16.937Z,31.65
2019-01-11T19:02:42.966Z,31.20
2019-01-11T19:05:08.933Z,29.37
2019-01-11T19:07:34.924Z,34.00
2019-01-11T19:10:00.849Z,31.67
2019-01-11T19:12:26.864Z,34.30
2019-01-11T19:14:52.868Z,30.42
2019-01-11T19:17:21.001Z,33.13
2019-01-11T19:19:48.231Z,37.15
2019-01-11T19:22:14.561Z,34.03
2019-01-11T19:24:40.680Z,33.63
2019-01-11T19:27:07.094Z,28.33
2019-01-11T19:29:37.711Z,30.12
2019-01-11T19:32:03.959Z,30.42
2019-01-11T19:34:30.248Z,29.08
2019-01-11T19:36:56.383Z,31.15
2019-01-11T19:39:22.422Z,27.95
2019-01-11T19:41:48.633Z,29.35
2019-01-11T19:44:14.886Z,29.80
2019-01-11T19:46:42.391Z,35.42
2019-01-11T19:49:07.294Z,29.83
2019-01-11T19:51:33.362Z,32.85
2019-01-11T19:53:59.432Z,32.92
2019-01-11T19:56:25.675Z,32.92
2019-01-11T19:58:51.793Z,30.20
2019-01-11T20:01:19.312Z,31.08
2019-01-11T20:03:45.375Z,27.80
2019-01-11T20:06:11.537Z,30.20
2019-01-11T20:08:37.572Z,29.05
2019-01-11T20:11:03.594Z,32.92
2019-01-11T20:13:29.573Z,28.67
2019-01-11T20:15:55.567Z,29.47
2019-01-11T20:18:21.671Z,32.00
2019-01-11T20:20:47.626Z,34.25
2019-01-11T20:23:13.622Z,29.07
2019-01-11T20:25:39.604Z,31.92
2019-01-11T20:28:05.649Z,29.00
2019-01-11T20:30:31.633Z,30.73
2019-01-11T20:32:57.623Z,30.65
2019-01-11T20:35:24.453Z,30.88
2019-01-11T20:37:50.469Z,27.48
2019-01-11T20:40:16.487Z,30.30
2019-01-11T20:42:42.570Z,31.27
2019-01-11T20:45:08.548Z,28.92
2019-01-11T20:47:34.518Z,26.85
2019-01-11T20:50:00.649Z,30.23
2019-01-11T20:52:26.745Z,32.50
2019-01-11T20:54:52.742Z,28.12
2019-01-11T20:57:19.472Z,31.33
2019-01-11T20:59:45.473Z,30.33
2019-01-11T21:02:11.465Z,29.27
2019-01-11T21:04:37.465Z,35.60
2019-01-11T21:07:03.431Z,30.90
2019-01-11T21:09:29.459Z,31.20
2019-01-11T21:11:56.157Z,27.97
2019-01-11T21:14:22.917Z,31.08
2019-01-11T21:16:48.993Z,26.42
2019-01-11T21:19:15.826Z,29.33
2019-01-11T21:21:41.884Z,27.52
2019-01-11T21:24:08.635Z,31.35
2019-01-11T21:26:34.637Z,27.25
2019-01-11T21:29:00.653Z,25.85
2019-01-11T21:31:26.661Z,28.80
2019-01-11T21:33:52.653Z,28.30
2019-01-11T21:36:18.600Z,26.53
2019-01-11T21:38:44.592Z,24.80
2019-01-11T21:41:10.568Z,28.00
2019-01-11T21:43:36.551Z,24.00
2019-01-11T21:46:03.500Z,26.37
2019-01-11T21:48:28.480Z,28.53
2019-01-11T21:50:54.433Z,29.43
2019-01-11T21:53:20.489Z,28.10
2019-01-11T21:55:46.484Z,28.50
2019-01-11T21:58:12.501Z,28.00
2019-01-11T22:00:38.460Z,29.83
2019-01-11T22:03:04.469Z,28.20
2019-01-11T22:05:35.848Z,30.92
2019-01-11T22:08:01.853Z,24.40
2019-01-11T22:10:27.876Z,28.38
2019-01-11T22:12:53.823Z,25.83
2019-01-11T22:15:19.795Z,25.50
2019-01-11T22:17:45.909Z,29.10
2019-01-11T22:20:12.706Z,24.80
2019-01-11T22:22:38.709Z,28.35
2019-01-11T22:25:04.681Z,28.10
2019-01-11T22:27:30.665Z,28.00
2019-01-11T22:29:56.660Z,28.70
2019-01-11T22:32:23.385Z,27.27
2019-01-11T22:34:49.361Z,38.63
2019-01-11T22:37:15.322Z,34.50
2019-01-11T22:39:41.263Z,30.20
2019-01-11T22:42:07.247Z,27.03
2019-01-11T22:44:33.237Z,27.10
2019-01-11T22:46:59.191Z,25.43
2019-01-11T22:49:25.181Z,24.67
2019-01-11T22:51:51.214Z,27.33
2019-01-11T22:54:17.362Z,25.75
2019-01-11T22:56:43.346Z,30.70
2019-01-11T22:59:09.329Z,30.93
2019-01-11T23:01:40.244Z,24.30
2019-01-11T23:04:06.231Z,28.10
2019-01-11T23:06:33.130Z,29.27
2019-01-11T23:08:59.206Z,29.00
2019-01-11T23:11:33.140Z,25.42
2019-01-11T23:13:59.119Z,25.30
2019-01-11T23:16:25.103Z,25.20
2019-01-11T23:18:51.045Z,30.53
2019-01-11T23:21:17.037Z,26.17
2019-01-11T23:23:43.016Z,27.90
2019-01-11T23:26:08.977Z,25.60
2019-01-11T23:28:34.932Z,28.17
2019-01-11T23:31:01.653Z,27.83
2019-01-11T23:33:28.412Z,25.58
2019-01-11T23:35:55.104Z,24.80
2019-01-11T23:38:21.113Z,25.20
2019-01-11T23:40:47.097Z,26.12
2019-01-11T23:43:13.791Z,26.47
2019-01-11T23:45:39.796Z,24.23
2019-01-11T23:48:05.801Z,23.25
2019-01-11T23:50:31.756Z,23.83
2019-01-11T23:52:57.739Z,25.80
2019-01-11T23:55:23.688Z,24.77
2019-01-11T23:57:49.689Z,26.57
